Observation data for Denver City on 01/19/2019      Previous  Date  Next       Current Mesonet Observations  Soil Data  Daily Summary Page  Observations in Plain Language
KDVS 190600Z 33017G23KT 02/00 A3009 RMK A01 T00200002  RH  089%=      5-min Rain = 0
KDVS 190605Z 33017G22KT 02/00 A301 RMK A01 T00200002  RH  089%=      5-min Rain = 0
KDVS 190610Z 33019G25KT 02/00 A301 RMK A01 T00210001  RH  088%=      5-min Rain = 0
KDVS 190615Z 33018G25KT 02/00 A301 RMK A01 T002100-0  RH  087%=      5-min Rain = 0
KDVS 190620Z 33020G26KT 02/M00 A301 RMK A01 T00221001  RH  086%=      5-min Rain = 0
KDVS 190625Z 32018G28KT 02/M00 A3011 RMK A01 T00221001  RH  086%=      5-min Rain = 0
KDVS 190630Z 33021G28KT 02/M00 A3011 RMK A01 T00231002  RH  084%=      5-min Rain = 0
KDVS 190635Z 33021G30KT 02/M01 A3011 RMK A01 T00241005  RH  082%=      5-min Rain = 0
KDVS 190640Z 33021G27KT 02/M01 A3011 RMK A01 T00241006  RH  081%=      5-min Rain = 0
KDVS 190645Z 34021G27KT 02/M01 A3011 RMK A01 T00231007  RH  081%=      5-min Rain = 0
KDVS 190650Z 33022G31KT 02/M01 A3012 RMK A01 T00221006  RH  082%=      5-min Rain = 0
KDVS 190655Z 34023G33KT 02/M01 A3012 RMK A01 T00221010  RH  080%=      5-min Rain = 0
KDVS 190700Z 34023G31KT 02/M01 A3012 RMK A01 T00221011  RH  080%=      5-min Rain = 0
KDVS 190705Z 34021G28KT 02/M01 A3012 RMK A01 T00201011  RH  081%=      5-min Rain = 0
KDVS 190710Z 34020G27KT 02/M01 A3013 RMK A01 T00191013  RH  080%=      5-min Rain = 0
KDVS 190715Z 34021G27KT 02/M02 A3013 RMK A01 T00191015  RH  079%=      5-min Rain = 0
KDVS 190720Z 34021G31KT 02/M02 A3013 RMK A01 T00181018  RH  077%=      5-min Rain = 0
KDVS 190725Z 34022G31KT 02/M02 A3013 RMK A01 T00181021  RH  076%=      5-min Rain = 0
KDVS 190730Z 34022G29KT 02/M02 A3013 RMK A01 T00171023  RH  075%=      5-min Rain = 0
KDVS 190735Z 34022G30KT 02/M03 A3013 RMK A01 T00171025  RH  074%=      5-min Rain = 0
KDVS 190740Z 34022G29KT 02/M03 A3014 RMK A01 T00171026  RH  073%=      5-min Rain = 0
KDVS 190745Z 34020KT 02/M03 A3014 RMK A01 T00161025  RH  075%=      5-min Rain = 0
KDVS 190750Z 34019G28KT 02/M03 A3014 RMK A01 T00151025  RH  075%=      5-min Rain = 0
KDVS 190755Z 34018G25KT 01/M03 A3015 RMK A01 T00141025  RH  076%=      5-min Rain = 0
KDVS 190800Z 33018G24KT 01/M02 A3015 RMK A01 T00131023  RH  077%=      5-min Rain = 0
KDVS 190805Z 33018G26KT 01/M02 A3015 RMK A01 T00131022  RH  078%=      5-min Rain = 0
KDVS 190810Z 34017G25KT 01/M02 A3015 RMK A01 T00141021  RH  078%=      5-min Rain = 0
KDVS 190815Z 34018G24KT 01/M02 A3015 RMK A01 T00141022  RH  077%=      5-min Rain = 0
KDVS 190820Z 34017G22KT 01/M02 A3015 RMK A01 T00141021  RH  078%=      5-min Rain = 0
KDVS 190825Z 33017G22KT 01/M02 A3015 RMK A01 T00121019  RH  080%=      5-min Rain = 0
KDVS 190830Z 33016KT 01/M02 A3016 RMK A01 T00111018  RH  082%=      5-min Rain = 0
KDVS 190835Z 33018G23KT 01/M02 A3016 RMK A01 T00111019  RH  081%=      5-min Rain = 0
KDVS 190840Z 33019G25KT 01/M02 A3016 RMK A01 T00131024  RH  077%=      5-min Rain = 0
KDVS 190845Z 34018G26KT 02/M03 A3017 RMK A01 T00151028  RH  074%=      5-min Rain = 0
KDVS 190850Z 34016G25KT 01/M03 A3017 RMK A01 T00141030  RH  073%=      5-min Rain = 0
KDVS 190855Z 34017G24KT 01/M03 A3017 RMK A01 T00131030  RH  073%=      5-min Rain = 0
KDVS 190900Z 34016G22KT 01/M03 A3017 RMK A01 T00121030  RH  074%=      5-min Rain = 0
KDVS 190905Z 34015G22KT 01/M03 A3017 RMK A01 T00101030  RH  075%=      5-min Rain = 0
KDVS 190910Z 34015G20KT 01/M03 A3017 RMK A01 T00101030  RH  075%=      5-min Rain = 0
KDVS 190915Z 33015G21KT 01/M03 A3018 RMK A01 T00091030  RH  076%=      5-min Rain = 0
KDVS 190920Z 33015G20KT 01/M03 A3018 RMK A01 T00091030  RH  076%=      5-min Rain = 0
KDVS 190925Z 34014G21KT 01/M03 A3018 RMK A01 T00091031  RH  076%=      5-min Rain = 0
KDVS 190930Z 33013G18KT 01/M03 A3019 RMK A01 T00091031  RH  075%=      5-min Rain = 0
KDVS 190935Z 33012G17KT 01/M03 A3019 RMK A01 T00091031  RH  075%=      5-min Rain = 0
KDVS 190940Z 33012G17KT 01/M03 A302 RMK A01 T00071031  RH  076%=      5-min Rain = 0
KDVS 190945Z 34011G16KT 01/M03 A3019 RMK A01 T00071032  RH  076%=      5-min Rain = 0
KDVS 190950Z 35012G20KT 01/M03 A3019 RMK A01 T00061032  RH  076%=      5-min Rain = 0
KDVS 190955Z 35013G18KT 01/M03 A3019 RMK A01 T00081032  RH  075%=      5-min Rain = 0
KDVS 191000Z 34012KT 01/M03 A3019 RMK A01 T00081032  RH  075%=      5-min Rain = 0
KDVS 191005Z 34013KT 01/M03 A302 RMK A01 T00081033  RH  074%=      5-min Rain = 0
KDVS 191010Z 34013KT 01/M03 A302 RMK A01 T00091033  RH  074%=      5-min Rain = 0
KDVS 191015Z 34012KT 01/M03 A302 RMK A01 T00081033  RH  074%=      5-min Rain = 0
KDVS 191020Z 33012KT 01/M03 A302 RMK A01 T00071033  RH  075%=      5-min Rain = 0
KDVS 191025Z 34010KT 01/M03 A302 RMK A01 T00061034  RH  075%=      5-min Rain = 0
KDVS 191030Z 33010KT 00/M03 A302 RMK A01 T00041034  RH  076%=      5-min Rain = 0
KDVS 191035Z 33010G15KT 00/M03 A302 RMK A01 T00031034  RH  077%=      5-min Rain = 0
KDVS 191040Z 33011KT 00/M03 A302 RMK A01 T00021034  RH  078%=      5-min Rain = 0
KDVS 191045Z 32011KT 00/M03 A3021 RMK A01 T00011034  RH  078%=      5-min Rain = 0
KDVS 191050Z 33012KT 00/04 A3021 RMK A01 T00-00-35  RH  078%=      5-min Rain = 0
KDVS 191055Z 33012KT M00/M04 A302 RMK A01 T10011035  RH  078%=      5-min Rain = 0
KDVS 191100Z 33013KT M00/M04 A302 RMK A01 T10011035  RH  078%=      5-min Rain = 0
KDVS 191105Z 33013KT 00/04 A302 RMK A01 T00-00-35  RH  078%=      5-min Rain = 0
KDVS 191110Z 33012KT M00/M04 A302 RMK A01 T10011036  RH  078%=      5-min Rain = 0
KDVS 191115Z 33012KT M00/M04 A302 RMK A01 T10011036  RH  078%=      5-min Rain = 0
KDVS 191120Z 33012KT 00/04 A302 RMK A01 T00-00-36  RH  077%=      5-min Rain = 0
KDVS 191125Z 33013KT 00/04 A302 RMK A01 T00-00-37  RH  077%=      5-min Rain = 0
KDVS 191130Z 33012KT M00/M04 A302 RMK A01 T10011037  RH  077%=      5-min Rain = 0
KDVS 191135Z 33013KT 00/04 A302 RMK A01 T00-00-37  RH  076%=      5-min Rain = 0
KDVS 191140Z 33014KT 00/M04 A302 RMK A01 T00021038  RH  075%=      5-min Rain = 0
KDVS 191145Z 33013KT 00/M04 A3021 RMK A01 T00031038  RH  075%=      5-min Rain = 0
KDVS 191150Z 32013KT 00/M04 A3021 RMK A01 T00031038  RH  075%=      5-min Rain = 0
KDVS 191155Z 32013KT 00/M04 A3021 RMK A01 T00021039  RH  075%=      5-min Rain = 0
KDVS 191200Z 32012KT 00/04 A3022 RMK A01 T00000-39  RH  075%=      5-min Rain = 0
KDVS 191205Z 31011KT M00/M04 A3022 RMK A01 T10011039  RH  076%=      5-min Rain = 0
KDVS 191210Z 31011KT M00/M04 A3022 RMK A01 T10021040  RH  076%=      5-min Rain = 0
KDVS 191215Z 31010KT M00/M04 A3023 RMK A01 T10041040  RH  077%=      5-min Rain = 0
KDVS 191220Z 31011KT M01/M04 A3023 RMK A01 T10051041  RH  077%=      5-min Rain = 0
KDVS 191225Z 31011KT M01/M04 A3023 RMK A01 T10051041  RH  077%=      5-min Rain = 0
KDVS 191230Z 30011KT M01/M04 A3024 RMK A01 T10061042  RH  077%=      5-min Rain = 0
KDVS 191235Z 31011KT M01/M04 A3024 RMK A01 T10061042  RH  077%=      5-min Rain = 0
KDVS 191240Z 31011KT M01/M04 A3024 RMK A01 T10051042  RH  076%=      5-min Rain = 0
KDVS 191245Z 31011KT M01/M04 A3025 RMK A01 T10061043  RH  076%=      5-min Rain = 0
KDVS 191250Z 31011KT M01/M04 A3025 RMK A01 T10071043  RH  077%=      5-min Rain = 0
KDVS 191255Z 30010KT M01/M04 A3026 RMK A01 T10081044  RH  077%=      5-min Rain = 0
KDVS 191300Z 30010KT M01/M05 A3026 RMK A01 T10101045  RH  077%=      5-min Rain = 0
KDVS 191305Z 30010KT M01/M05 A3027 RMK A01 T10131046  RH  079%=      5-min Rain = 0
KDVS 191310Z 30010KT M02/M05 A3027 RMK A01 T10161046  RH  080%=      5-min Rain = 0
KDVS 191315Z 30010KT M02/M05 A3027 RMK A01 T10161046  RH  080%=      5-min Rain = 0
KDVS 191320Z 30011KT M02/M05 A3027 RMK A01 T10171046  RH  081%=      5-min Rain = 0
KDVS 191325Z 30012KT M02/M05 A3027 RMK A01 T10171046  RH  081%=      5-min Rain = 0
KDVS 191330Z 30011KT M02/M05 A3027 RMK A01 T10161046  RH  080%=      5-min Rain = 0
KDVS 191335Z 30012KT M02/M05 A3027 RMK A01 T10161046  RH  080%=      5-min Rain = 0
KDVS 191340Z 31012KT M02/M05 A3028 RMK A01 T10151046  RH  080%=      5-min Rain = 0
KDVS 191345Z 31013KT M01/M05 A3028 RMK A01 T10141045  RH  079%=      5-min Rain = 0
KDVS 191350Z 31012KT M01/M05 A3028 RMK A01 T10111045  RH  078%=      5-min Rain = 0
KDVS 191355Z 31012KT M01/M05 A3028 RMK A01 T10101045  RH  077%=      5-min Rain = 0
KDVS 191400Z 31012KT M01/M05 A3028 RMK A01 T10091045  RH  077%=      5-min Rain = 0
KDVS 191405Z 31012KT M01/M05 A3028 RMK A01 T10071045  RH  076%=      5-min Rain = 0
KDVS 191410Z 31011KT M01/M05 A3029 RMK A01 T10061045  RH  075%=      5-min Rain = 0
KDVS 191415Z 31011KT M01/M05 A3029 RMK A01 T10051045  RH  075%=      5-min Rain = 0
KDVS 191420Z 31010KT M00/M04 A3029 RMK A01 T10041044  RH  074%=      5-min Rain = 0
KDVS 191425Z 31009KT M00/M04 A303 RMK A01 T10031044  RH  074%=      5-min Rain = 0
KDVS 191430Z 31009KT M00/M04 A303 RMK A01 T10011043  RH  074%=      5-min Rain = 0
KDVS 191435Z 31008KT 00/M04 A303 RMK A01 T00021041  RH  073%=      5-min Rain = 0
KDVS 191440Z 30008KT 00/M04 A303 RMK A01 T00041040  RH  073%=      5-min Rain = 0
KDVS 191445Z 30009KT 01/M04 A303 RMK A01 T00061039  RH  073%=      5-min Rain = 0
KDVS 191450Z 31010KT 01/M04 A3031 RMK A01 T00091037  RH  072%=      5-min Rain = 0
KDVS 191455Z 31011KT 01/M04 A3031 RMK A01 T00131035  RH  070%=      5-min Rain = 0
KDVS 191500Z 31011KT 02/M04 A303 RMK A01 T00181036  RH  068%=      5-min Rain = 0
KDVS 191505Z 31012KT 02/M04 A303 RMK A01 T00231036  RH  065%=      5-min Rain = 0
KDVS 191510Z 31012KT 03/M04 A3031 RMK A01 T00261036  RH  064%=      5-min Rain = 0
KDVS 191515Z 32012KT 03/M04 A3031 RMK A01 T00301037  RH  062%=      5-min Rain = 0
KDVS 191520Z 32011KT 03/M04 A3031 RMK A01 T00341037  RH  060%=      5-min Rain = 0
KDVS 191525Z 32012KT 04/M04 A3032 RMK A01 T00371037  RH  059%=      5-min Rain = 0
KDVS 191530Z 32011KT 04/M04 A3032 RMK A01 T00401037  RH  058%=      5-min Rain = 0
KDVS 191535Z 32012KT 04/M04 A3032 RMK A01 T00421036  RH  057%=      5-min Rain = 0
KDVS 191540Z 33012KT 05/M04 A3033 RMK A01 T00451037  RH  056%=      5-min Rain = 0
KDVS 191545Z 33012KT 05/M04 A3033 RMK A01 T00471036  RH  055%=      5-min Rain = 0
KDVS 191550Z 33012KT 05/M04 A3033 RMK A01 T00511037  RH  053%=      5-min Rain = 0
KDVS 191555Z 34011G16KT 06/M04 A3033 RMK A01 T00551038  RH  051%=      5-min Rain = 0
KDVS 191600Z 34013KT 06/M04 A3034 RMK A01 T00591043  RH  048%=      5-min Rain = 0
KDVS 191605Z 34013KT 06/M04 A3034 RMK A01 T00591044  RH  048%=      5-min Rain = 0
KDVS 191610Z 34010KT 06/M04 A3034 RMK A01 T00621041  RH  048%=      5-min Rain = 0
KDVS 191615Z 34011KT 07/M04 A3034 RMK A01 T00651041  RH  047%=      5-min Rain = 0
KDVS 191620Z 34011G18KT 07/M04 A3034 RMK A01 T00671042  RH  046%=      5-min Rain = 0
KDVS 191625Z 33012G17KT 07/M04 A3034 RMK A01 T00681044  RH  045%=      5-min Rain = 0
KDVS 191630Z 33014G20KT 07/M04 A3034 RMK A01 T00691043  RH  045%=      5-min Rain = 0
KDVS 191635Z 34014KT 07/M04 A3035 RMK A01 T00701044  RH  044%=      5-min Rain = 0
KDVS 191640Z 35012KT 07/M05 A3034 RMK A01 T00741045  RH  043%=      5-min Rain = 0
KDVS 191645Z 34014KT 08/M05 A3034 RMK A01 T00751045  RH  042%=      5-min Rain = 0
KDVS 191650Z 34014G20KT 08/M05 A3034 RMK A01 T00751045  RH  042%=      5-min Rain = 0
KDVS 191655Z 35013G19KT 08/M05 A3035 RMK A01 T00791046  RH  041%=      5-min Rain = 0
KDVS 191700Z 34012G17KT 08/M05 A3035 RMK A01 T00801046  RH  041%=      5-min Rain = 0
KDVS 191705Z 35011G16KT 08/M05 A3034 RMK A01 T00801045  RH  041%=      5-min Rain = 0
KDVS 191710Z 34012G17KT 08/M05 A3034 RMK A01 T00831047  RH  040%=      5-min Rain = 0
KDVS 191715Z 35011KT 08/M05 A3034 RMK A01 T00821046  RH  040%=      5-min Rain = 0
KDVS 191720Z 34012KT 08/M05 A3034 RMK A01 T00841046  RH  040%=      5-min Rain = 0
KDVS 191725Z 34010G16KT 09/M05 A3035 RMK A01 T00861046  RH  039%=      5-min Rain = 0
KDVS 191730Z 34011G16KT 09/M05 A3035 RMK A01 T00891048  RH  038%=      5-min Rain = 0
KDVS 191735Z 34012G17KT 09/M05 A3035 RMK A01 T00901049  RH  037%=      5-min Rain = 0
KDVS 191740Z 34011KT 09/M05 A3035 RMK A01 T00891048  RH  038%=      5-min Rain = 0
KDVS 191745Z 33011G16KT 09/M05 A3035 RMK A01 T00911050  RH  037%=      5-min Rain = 0
KDVS 191750Z 33012KT 09/M05 A3035 RMK A01 T00921052  RH  036%=      5-min Rain = 0
KDVS 191755Z 33010G15KT 09/M05 A3035 RMK A01 T00911052  RH  036%=      5-min Rain = 0
KDVS 191800Z 34008KT 09/M05 A3035 RMK A01 T00931050  RH  036%=      5-min Rain = 0
KDVS 191805Z 30008KT 10/M05 A3035 RMK A01 T00961050  RH  035%=      5-min Rain = 0
KDVS 191810Z 32008KT 10/M05 A3034 RMK A01 T00981052  RH  034%=      5-min Rain = 0
KDVS 191815Z 32010G15KT 10/M05 A3034 RMK A01 T00981053  RH  034%=      5-min Rain = 0
KDVS 191820Z 31008KT 10/M05 A3034 RMK A01 T00971053  RH  034%=      5-min Rain = 0
KDVS 191825Z 32007G14KT 10/M05 A3034 RMK A01 T01011053  RH  034%=      5-min Rain = 0
KDVS 191830Z 30007G12KT 10/M05 A3033 RMK A01 T01011053  RH  033%=      5-min Rain = 0
KDVS 191835Z 31007G13KT 10/M05 A3033 RMK A01 T01031054  RH  033%=      5-min Rain = 0
KDVS 191840Z 31007KT 10/M06 A3033 RMK A01 T01041055  RH  032%=      5-min Rain = 0
KDVS 191845Z 31008KT 11/M06 A3032 RMK A01 T01051055  RH  032%=      5-min Rain = 0
KDVS 191850Z 28009KT 11/M06 A3032 RMK A01 T01081056  RH  031%=      5-min Rain = 0
KDVS 191855Z 27007KT 11/M06 A3032 RMK A01 T01091057  RH  031%=      5-min Rain = 0
KDVS 191900Z 31007KT 11/M06 A3032 RMK A01 T01091055  RH  031%=      5-min Rain = 0
KDVS 191905Z 31010KT 11/M06 A3031 RMK A01 T01101056  RH  031%=      5-min Rain = 0
KDVS 191910Z 31009KT 11/M06 A3032 RMK A01 T01121057  RH  030%=      5-min Rain = 0
KDVS 191915Z 31007G12KT 11/M06 A3031 RMK A01 T01131059  RH  029%=      5-min Rain = 0
KDVS 191920Z 31009KT 11/M06 A3031 RMK A01 T01141059  RH  029%=      5-min Rain = 0
KDVS 191925Z 31006G11KT 11/M06 A3031 RMK A01 T01121061  RH  029%=      5-min Rain = 0
KDVS 191930Z 31011KT 12/M06 A303 RMK A01 T01151061  RH  029%=      5-min Rain = 0
KDVS 191935Z 29010G15KT 12/M06 A303 RMK A01 T01171060  RH  028%=      5-min Rain = 0
KDVS 191940Z 29008G13KT 12/M06 A3029 RMK A01 T01171061  RH  028%=      5-min Rain = 0
KDVS 191945Z 29011KT 12/M06 A3029 RMK A01 T01191062  RH  028%=      5-min Rain = 0
KDVS 191950Z 29007KT 12/M06 A3029 RMK A01 T01191063  RH  027%=      5-min Rain = 0
KDVS 191955Z 29011KT 12/M07 A3029 RMK A01 T01211066  RH  026%=      5-min Rain = 0
KDVS 192000Z 29011G16KT 12/M06 A3028 RMK A01 T01201064  RH  027%=      5-min Rain = 0
KDVS 192005Z 30007KT 12/M07 A3028 RMK A01 T01221066  RH  026%=      5-min Rain = 0
KDVS 192010Z 29010KT 12/M07 A3028 RMK A01 T01241070  RH  025%=      5-min Rain = 0
KDVS 192015Z 33007KT 12/M08 A3028 RMK A01 T01221075  RH  025%=      5-min Rain = 0
KDVS 192020Z 31009G14KT 12/M08 A3027 RMK A01 T01231075  RH  024%=      5-min Rain = 0
KDVS 192025Z 32009KT 12/M08 A3027 RMK A01 T01241081  RH  023%=      5-min Rain = 0
KDVS 192030Z 29010G15KT 12/M08 A3027 RMK A01 T01241078  RH  024%=      5-min Rain = 0
KDVS 192035Z 31007KT 13/M08 A3027 RMK A01 T01261076  RH  024%=      5-min Rain = 0
KDVS 192040Z 31009G15KT 13/M09 A3026 RMK A01 T01251085  RH  022%=      5-min Rain = 0
KDVS 192045Z 28009KT 13/M08 A3026 RMK A01 T01251081  RH  023%=      5-min Rain = 0
KDVS 192050Z 29010KT 13/M08 A3026 RMK A01 T01271081  RH  023%=      5-min Rain = 0
KDVS 192055Z 29008KT 13/M08 A3026 RMK A01 T01261080  RH  023%=      5-min Rain = 0
KDVS 192100Z 29006KT 13/M08 A3026 RMK A01 T01261082  RH  023%=      5-min Rain = 0
KDVS 192105Z 28005G10KT 13/M08 A3025 RMK A01 T01281083  RH  022%=      5-min Rain = 0
KDVS 192110Z 30011KT 13/M09 A3025 RMK A01 T01291092  RH  021%=      5-min Rain = 0
KDVS 192115Z 31008G13KT 13/M09 A3025 RMK A01 T01261091  RH  021%=      5-min Rain = 0
KDVS 192120Z 29008KT 13/M09 A3025 RMK A01 T01251087  RH  022%=      5-min Rain = 0
KDVS 192125Z 32006KT 13/M09 A3025 RMK A01 T01271088  RH  021%=      5-min Rain = 0
KDVS 192130Z 33006KT 13/M09 A3025 RMK A01 T01261085  RH  022%=      5-min Rain = 0
KDVS 192135Z 29007KT 13/M08 A3025 RMK A01 T01291082  RH  022%=      5-min Rain = 0
KDVS 192140Z 27005KT 13/M08 A3025 RMK A01 T01291083  RH  022%=      5-min Rain = 0
KDVS 192145Z 29009KT 13/M08 A3025 RMK A01 T01311083  RH  022%=      5-min Rain = 0
KDVS 192150Z 27009KT 13/M08 A3025 RMK A01 T01291084  RH  022%=      5-min Rain = 0
KDVS 192155Z 27008KT 13/M09 A3025 RMK A01 T01301087  RH  021%=      5-min Rain = 0
KDVS 192200Z 28010G15KT 13/M09 A3024 RMK A01 T01301088  RH  021%=      5-min Rain = 0
KDVS 192205Z 28008G13KT 13/M09 A3024 RMK A01 T01291089  RH  021%=      5-min Rain = 0
KDVS 192210Z 27005G10KT 13/M09 A3024 RMK A01 T01281091  RH  021%=      5-min Rain = 0
KDVS 192215Z 27010KT 13/M09 A3024 RMK A01 T01291090  RH  021%=      5-min Rain = 0
KDVS 192220Z 28009KT 13/M09 A3024 RMK A01 T01291091  RH  021%=      5-min Rain = 0
KDVS 192225Z 28005KT 13/M09 A3024 RMK A01 T01271092  RH  021%=      5-min Rain = 0
KDVS 192230Z 29005KT 13/M09 A3024 RMK A01 T01271090  RH  021%=      5-min Rain = 0
KDVS 192235Z 29008KT 13/M09 A3024 RMK A01 T01281090  RH  021%=      5-min Rain = 0
KDVS 192240Z 28007KT 13/M09 A3024 RMK A01 T01271091  RH  021%=      5-min Rain = 0
KDVS 192245Z 30005KT 13/M09 A3024 RMK A01 T01281092  RH  021%=      5-min Rain = 0
KDVS 192250Z 29007KT 13/M09 A3024 RMK A01 T01281093  RH  021%=      5-min Rain = 0
KDVS 192255Z 28004G11KT 13/M09 A3024 RMK A01 T01291093  RH  020%=      5-min Rain = 0
KDVS 192300Z 28009KT 13/M10 A3024 RMK A01 T01281095  RH  020%=      5-min Rain = 0
KDVS 192305Z 28007G12KT 13/M09 A3024 RMK A01 T01271094  RH  020%=      5-min Rain = 0
KDVS 192310Z 28006KT 13/M09 A3024 RMK A01 T01271091  RH  021%=      5-min Rain = 0
KDVS 192315Z 28008KT 13/M09 A3024 RMK A01 T01261092  RH  021%=      5-min Rain = 0
KDVS 192320Z 28009KT 12/M10 A3024 RMK A01 T01241097  RH  020%=      5-min Rain = 0
KDVS 192325Z 29007KT 12/M10 A3024 RMK A01 T01221100  RH  020%=      5-min Rain = 0
KDVS 192330Z 29007KT 12/M10 A3024 RMK A01 T01211100  RH  020%=      5-min Rain = 0
KDVS 192335Z 29006KT 12/M10 A3024 RMK A01 T01201100  RH  020%=      5-min Rain = 0
KDVS 192340Z 28005KT 12/M10 A3024 RMK A01 T01191097  RH  021%=      5-min Rain = 0
KDVS 192345Z 29005KT 12/M10 A3024 RMK A01 T01161097  RH  021%=      5-min Rain = 0
KDVS 192350Z 28005KT 11/M10 A3024 RMK A01 T01141095  RH  022%=      5-min Rain = 0
KDVS 192355Z 29005KT 11/M09 A3024 RMK A01 T01101094  RH  023%=      5-min Rain = 0
KDVS 200000Z 29005KT 11/M09 A3024 RMK A01 T01051094  RH  024%=      5-min Rain = 0
KDVS 200005Z 29005KT 10/M09 A3024 RMK A01 T00991093  RH  025%=      5-min Rain = 0
KDVS 200010Z 29005KT 09/M10 A3024 RMK A01 T00941095  RH  025%=      5-min Rain = 0
KDVS 200015Z 28006KT 09/M10 A3025 RMK A01 T00881097  RH  026%=      5-min Rain = 0
KDVS 200020Z 29007KT 08/M10 A3025 RMK A01 T00831098  RH  027%=      5-min Rain = 0
KDVS 200025Z 29007KT 08/M10 A3025 RMK A01 T00781098  RH  027%=      5-min Rain = 0
KDVS 200030Z 29006KT 07/M10 A3025 RMK A01 T00721099  RH  028%=      5-min Rain = 0
KDVS 200035Z 30005KT 07/M10 A3025 RMK A01 T00661100  RH  029%=      5-min Rain = 0
KDVS 200040Z 30004KT 06/M10 A3025 RMK A01 T00641100  RH  030%=      5-min Rain = 0
KDVS 200045Z 28004KT 07/M10 A3025 RMK A01 T00671099  RH  029%=      5-min Rain = 0
KDVS 200050Z 26004KT 07/M10 A3025 RMK A01 T00711097  RH  029%=      5-min Rain = 0
KDVS 200055Z 26004KT 07/M10 A3025 RMK A01 T00711097  RH  029%=      5-min Rain = 0
KDVS 200100Z 26003KT 07/M10 A3025 RMK A01 T00741096  RH  029%=      5-min Rain = 0
KDVS 200105Z 26002KT 07/M10 A3025 RMK A01 T00721097  RH  029%=      5-min Rain = 0
KDVS 200110Z 27002KT 07/M10 A3025 RMK A01 T00691096  RH  030%=      5-min Rain = 0
KDVS 200115Z 28002KT 07/M10 A3025 RMK A01 T00741095  RH  029%=      5-min Rain = 0
KDVS 200120Z 28002KT 08/M10 A3025 RMK A01 T00811096  RH  027%=      5-min Rain = 0
KDVS 200125Z 28002KT 08/M10 A3025 RMK A01 T00841097  RH  027%=      5-min Rain = 0
KDVS 200130Z 28001KT 09/M10 A3025 RMK A01 T00861098  RH  026%=      5-min Rain = 0
KDVS 200135Z 28001KT 09/M10 A3024 RMK A01 T00871099  RH  026%=      5-min Rain = 0
KDVS 200140Z 18003KT 06/M10 A3024 RMK A01 T00581104  RH  030%=      5-min Rain = 0
KDVS 200145Z 17003KT 03/M10 A3024 RMK A01 T00291101  RH  038%=      5-min Rain = 0
KDVS 200150Z 17003KT 03/M10 A3024 RMK A01 T00251098  RH  040%=      5-min Rain = 0
KDVS 200155Z 19005KT 03/M10 A3024 RMK A01 T00271095  RH  040%=      5-min Rain = 0
KDVS 200200Z 19005KT 02/M09 A3024 RMK A01 T00231092  RH  042%=      5-min Rain = 0
KDVS 200205Z 19005KT 03/M09 A3024 RMK A01 T00251087  RH  043%=      5-min Rain = 0
KDVS 200210Z 20005KT 03/M09 A3025 RMK A01 T00301089  RH  041%=      5-min Rain = 0
KDVS 200215Z 20005KT 04/M09 A3025 RMK A01 T00361089  RH  039%=      5-min Rain = 0
KDVS 200220Z 21004KT 04/M09 A3026 RMK A01 T00381091  RH  038%=      5-min Rain = 0
KDVS 200225Z 22005KT 04/M09 A3027 RMK A01 T00361091  RH  039%=      5-min Rain = 0
KDVS 200230Z 23005KT 03/M09 A3028 RMK A01 T00331090  RH  040%=      5-min Rain = 0
KDVS 200235Z 24006KT 03/M09 A3028 RMK A01 T00321093  RH  039%=      5-min Rain = 0
KDVS 200240Z 25006KT 03/M10 A3029 RMK A01 T00291095  RH  040%=      5-min Rain = 0
KDVS 200245Z 25005KT 03/M10 A3029 RMK A01 T00251096  RH  040%=      5-min Rain = 0
KDVS 200250Z 24005KT 03/M10 A3029 RMK A01 T00301097  RH  039%=      5-min Rain = 0
KDVS 200255Z 25005KT 03/M10 A3029 RMK A01 T00281099  RH  039%=      5-min Rain = 0
KDVS 200300Z 22006KT 03/M10 A3028 RMK A01 T00261096  RH  040%=      5-min Rain = 0
KDVS 200305Z 21005KT 03/M10 A3028 RMK A01 T00311096  RH  039%=      5-min Rain = 0
KDVS 200310Z 20006KT 04/M10 A3027 RMK A01 T00351098  RH  037%=      5-min Rain = 0
KDVS 200315Z 19007KT 03/M10 A3026 RMK A01 T00281096  RH  039%=      5-min Rain = 0
KDVS 200320Z 19006KT 03/M10 A3027 RMK A01 T00321096  RH  038%=      5-min Rain = 0
KDVS 200325Z 20006KT 03/M09 A3027 RMK A01 T00331092  RH  039%=      5-min Rain = 0
KDVS 200330Z 19006KT 03/M09 A3027 RMK A01 T00311092  RH  040%=      5-min Rain = 0
KDVS 200335Z 19005KT 03/M09 A3026 RMK A01 T00251093  RH  041%=      5-min Rain = 0
KDVS 200340Z 17005KT 02/M09 A3026 RMK A01 T00191093  RH  043%=      5-min Rain = 0
KDVS 200345Z 16005KT 01/M10 A3026 RMK A01 T00101098  RH  044%=      5-min Rain = 0
KDVS 200350Z 17004KT 00/M10 A3026 RMK A01 T00031095  RH  048%=      5-min Rain = 0
KDVS 200355Z 16002KT 00/M09 A3026 RMK A01 T00031093  RH  048%=      5-min Rain = 0
KDVS 200400Z 14003KT 00/M09 A3026 RMK A01 T00041094  RH  048%=      5-min Rain = 0
KDVS 200405Z 16004KT 01/M09 A3026 RMK A01 T00061094  RH  047%=      5-min Rain = 0
KDVS 200410Z 18005KT 01/M09 A3026 RMK A01 T00121090  RH  046%=      5-min Rain = 0
KDVS 200415Z 20006KT 02/M09 A3026 RMK A01 T00211090  RH  044%=      5-min Rain = 0
KDVS 200420Z 20007KT 02/M09 A3026 RMK A01 T00171093  RH  044%=      5-min Rain = 0
KDVS 200425Z 21006KT 01/M09 A3026 RMK A01 T00111089  RH  047%=      5-min Rain = 0
KDVS 200430Z 20005KT 02/M09 A3026 RMK A01 T00161088  RH  046%=      5-min Rain = 0
KDVS 200435Z 11004KT 01/M09 A3027 RMK A01 T00051090  RH  049%=      5-min Rain = 0
KDVS 200440Z 12005KT M01/M09 A3027 RMK A01 T10111091  RH  055%=      5-min Rain = 0
KDVS 200445Z 12004KT M01/M09 A3027 RMK A01 T10111089  RH  055%=      5-min Rain = 0
KDVS 200450Z 12005KT M01/M09 A3026 RMK A01 T10061088  RH  054%=      5-min Rain = 0
KDVS 200455Z 13005KT 00/09 A3027 RMK A01 T00000-88  RH  052%=      5-min Rain = 0
KDVS 200500Z 14005KT 01/M09 A3027 RMK A01 T00081088  RH  048%=      5-min Rain = 0
KDVS 200505Z 15005KT 01/M09 A3026 RMK A01 T00111089  RH  047%=      5-min Rain = 0
KDVS 200510Z 16006KT 01/M09 A3027 RMK A01 T00091089  RH  048%=      5-min Rain = 0
KDVS 200515Z 16007KT 00/M09 A3027 RMK A01 T00041088  RH  050%=      5-min Rain = 0
KDVS 200520Z 16006KT 00/M09 A3027 RMK A01 T00031086  RH  051%=      5-min Rain = 0
KDVS 200525Z 17008KT 01/M09 A3027 RMK A01 T00051085  RH  051%=      5-min Rain = 0
KDVS 200530Z 16009KT 01/M08 A3027 RMK A01 T00081083  RH  051%=      5-min Rain = 0
KDVS 200535Z 16007KT 01/M08 A3027 RMK A01 T00111083  RH  049%=      5-min Rain = 0
KDVS 200540Z 17006KT 01/M08 A3027 RMK A01 T00141082  RH  049%=      5-min Rain = 0
KDVS 200545Z 17007KT 01/M08 A3027 RMK A01 T00121083  RH  049%=      5-min Rain = 0
KDVS 200550Z 18007KT 01/M08 A3028 RMK A01 T00091083  RH  050%=      5-min Rain = 0
KDVS 200555Z 18007KT 01/M08 A3028 RMK A01 T00061084  RH  051%=      5-min Rain = 0

Page generated in 0.0272 seconds.